sensor_id;sensor_type;location;lat;lon;timestamp;pressure;altitude;pressure_sealevel;temperature;humidity
33845;BME280;20145;43.118;25.694;2023-04-02T00:01:43;98360.34;;;11.34;81.13
33845;BME280;20145;43.118;25.694;2023-04-02T00:04:20;98357.69;;;11.37;79.50
33845;BME280;20145;43.118;25.694;2023-04-02T00:07:22;98367.91;;;11.41;79.93
33845;BME280;20145;43.118;25.694;2023-04-02T00:09:55;98357.47;;;11.44;79.45
33845;BME280;20145;43.118;25.694;2023-04-02T00:12:21;98375.34;;;11.50;80.10
33845;BME280;20145;43.118;25.694;2023-04-02T00:14:51;98374.47;;;11.51;79.28
33845;BME280;20145;43.118;25.694;2023-04-02T00:17:18;98361.75;;;11.45;80.50
33845;BME280;20145;43.118;25.694;2023-04-02T00:19:56;98357.22;;;11.51;79.42
33845;BME280;20145;43.118;25.694;2023-04-02T00:22:30;98351.00;;;11.57;79.07
33845;BME280;20145;43.118;25.694;2023-04-02T00:24:59;98364.94;;;11.53;78.80
33845;BME280;20145;43.118;25.694;2023-04-02T00:27:26;98362.44;;;11.50;79.01
33845;BME280;20145;43.118;25.694;2023-04-02T00:29:56;98360.53;;;11.55;78.44
33845;BME280;20145;43.118;25.694;2023-04-02T00:32:28;98364.03;;;11.54;77.81
33845;BME280;20145;43.118;25.694;2023-04-02T00:34:55;98361.47;;;11.52;77.65
33845;BME280;20145;43.118;25.694;2023-04-02T00:37:24;98359.78;;;11.53;78.41
33845;BME280;20145;43.118;25.694;2023-04-02T00:39:57;98370.78;;;11.58;78.38
33845;BME280;20145;43.118;25.694;2023-04-02T00:42:25;98379.44;;;11.57;77.45
33845;BME280;20145;43.118;25.694;2023-04-02T00:44:53;98357.22;;;11.51;77.89
33845;BME280;20145;43.118;25.694;2023-04-02T00:47:41;98382.59;;;11.65;78.53
33845;BME280;20145;43.118;25.694;2023-04-02T00:52:40;98371.53;;;11.61;78.84
33845;BME280;20145;43.118;25.694;2023-04-02T00:55:34;98387.78;;;11.65;79.66
33845;BME280;20145;43.118;25.694;2023-04-02T00:58:01;98386.88;;;11.66;79.76
33845;BME280;20145;43.118;25.694;2023-04-02T01:00:33;98387.06;;;11.60;79.02
33845;BME280;20145;43.118;25.694;2023-04-02T01:05:38;98394.19;;;11.53;79.19
33845;BME280;20145;43.118;25.694;2023-04-02T01:17:05;98400.91;;;11.59;77.81
33845;BME280;20145;43.118;25.694;2023-04-02T01:20:06;98404.53;;;11.53;77.42
33845;BME280;20145;43.118;25.694;2023-04-02T01:22:50;98402.78;;;11.54;77.77
33845;BME280;20145;43.118;25.694;2023-04-02T01:28:21;98403.47;;;11.59;77.18
33845;BME280;20145;43.118;25.694;2023-04-02T01:30:54;98399.00;;;11.64;76.76
33845;BME280;20145;43.118;25.694;2023-04-02T01:33:28;98403.38;;;11.62;75.93
33845;BME280;20145;43.118;25.694;2023-04-02T01:38:39;98396.44;;;11.64;76.17
33845;BME280;20145;43.118;25.694;2023-04-02T01:44:09;98392.03;;;11.66;75.64
33845;BME280;20145;43.118;25.694;2023-04-02T01:46:39;98381.78;;;11.65;75.50
33845;BME280;20145;43.118;25.694;2023-04-02T01:49:13;98378.94;;;11.72;74.78
33845;BME280;20145;43.118;25.694;2023-04-02T01:51:42;98366.38;;;11.61;74.75
33845;BME280;20145;43.118;25.694;2023-04-02T01:54:08;98368.63;;;11.71;74.65
33845;BME280;20145;43.118;25.694;2023-04-02T01:56:35;98362.63;;;11.70;74.81
33845;BME280;20145;43.118;25.694;2023-04-02T01:59:01;98365.84;;;11.77;74.14
33845;BME280;20145;43.118;25.694;2023-04-02T02:01:56;98353.81;;;11.76;74.15
33845;BME280;20145;43.118;25.694;2023-04-02T02:04:24;98353.75;;;11.77;74.48
33845;BME280;20145;43.118;25.694;2023-04-02T02:06:50;98354.69;;;11.75;73.63
33845;BME280;20145;43.118;25.694;2023-04-02T02:09:24;98348.47;;;11.80;73.76
33845;BME280;20145;43.118;25.694;2023-04-02T02:11:52;98349.16;;;11.87;73.23
33845;BME280;20145;43.118;25.694;2023-04-02T02:14:22;98361.16;;;11.90;72.55
33845;BME280;20145;43.118;25.694;2023-04-02T02:16:49;98358.50;;;11.91;72.50
33845;BME280;20145;43.118;25.694;2023-04-02T02:19:44;98360.34;;;11.88;72.20
33845;BME280;20145;43.118;25.694;2023-04-02T02:22:26;98366.94;;;11.96;72.98
33845;BME280;20145;43.118;25.694;2023-04-02T02:24:54;98373.97;;;11.93;71.17
33845;BME280;20145;43.118;25.694;2023-04-02T02:27:30;98372.06;;;11.98;71.82
33845;BME280;20145;43.118;25.694;2023-04-02T02:30:11;98372.22;;;11.93;71.33
33845;BME280;20145;43.118;25.694;2023-04-02T02:32:45;98364.31;;;11.98;71.08
33845;BME280;20145;43.118;25.694;2023-04-02T02:35:15;98373.41;;;12.08;70.53
33845;BME280;20145;43.118;25.694;2023-04-02T02:37:46;98385.69;;;12.03;71.27
33845;BME280;20145;43.118;25.694;2023-04-02T02:40:20;98375.34;;;12.03;71.73
33845;BME280;20145;43.118;25.694;2023-04-02T02:42:51;98372.00;;;11.99;71.58
33845;BME280;20145;43.118;25.694;2023-04-02T02:45:22;98377.94;;;12.03;71.12
33845;BME280;20145;43.118;25.694;2023-04-02T02:47:50;98379.50;;;12.07;70.19
33845;BME280;20145;43.118;25.694;2023-04-02T02:50:28;98366.34;;;12.13;70.94
33845;BME280;20145;43.118;25.694;2023-04-02T02:53:03;98372.78;;;12.01;70.14
33845;BME280;20145;43.118;25.694;2023-04-02T02:55:31;98378.13;;;11.97;70.47
33845;BME280;20145;43.118;25.694;2023-04-02T02:58:05;98376.09;;;12.05;72.03
33845;BME280;20145;43.118;25.694;2023-04-02T03:00:33;98387.63;;;11.96;73.24
33845;BME280;20145;43.118;25.694;2023-04-02T03:03:05;98389.69;;;11.85;73.61
33845;BME280;20145;43.118;25.694;2023-04-02T03:05:33;98391.44;;;11.84;73.58
33845;BME280;20145;43.118;25.694;2023-04-02T03:08:02;98386.41;;;11.80;72.89
33845;BME280;20145;43.118;25.694;2023-04-02T03:10:45;98400.28;;;11.77;73.43
33845;BME280;20145;43.118;25.694;2023-04-02T03:16:01;98391.06;;;11.70;74.08
33845;BME280;20145;43.118;25.694;2023-04-02T03:23:33;98395.53;;;11.65;74.09
33845;BME280;20145;43.118;25.694;2023-04-02T03:26:09;98386.94;;;11.65;74.68
33845;BME280;20145;43.118;25.694;2023-04-02T03:28:42;98384.38;;;11.63;74.24
33845;BME280;20145;43.118;25.694;2023-04-02T03:31:30;98375.09;;;11.57;75.74
33845;BME280;20145;43.118;25.694;2023-04-02T03:33:58;98378.59;;;11.56;74.47
33845;BME280;20145;43.118;25.694;2023-04-02T03:39:22;98384.94;;;11.46;74.56
33845;BME280;20145;43.118;25.694;2023-04-02T03:42:22;98369.28;;;11.24;76.32
33845;BME280;20145;43.118;25.694;2023-04-02T03:45:02;98385.38;;;11.32;75.40
33845;BME280;20145;43.118;25.694;2023-04-02T03:50:09;98383.50;;;11.37;75.35
33845;BME280;20145;43.118;25.694;2023-04-02T03:52:37;98393.13;;;11.32;73.96
33845;BME280;20145;43.118;25.694;2023-04-02T03:55:11;98403.72;;;11.51;74.24
33845;BME280;20145;43.118;25.694;2023-04-02T04:00:32;98409.38;;;11.63;72.92
33845;BME280;20145;43.118;25.694;2023-04-02T04:03:23;98405.81;;;11.67;73.53
33845;BME280;20145;43.118;25.694;2023-04-02T04:06:01;98420.06;;;11.78;73.06
33845;BME280;20145;43.118;25.694;2023-04-02T04:08:49;98423.50;;;11.79;72.81
33845;BME280;20145;43.118;25.694;2023-04-02T04:11:20;98427.81;;;11.78;73.04
33845;BME280;20145;43.118;25.694;2023-04-02T04:14:17;98428.66;;;11.79;73.42
33845;BME280;20145;43.118;25.694;2023-04-02T04:24:42;98446.97;;;11.99;71.57
33845;BME280;20145;43.118;25.694;2023-04-02T04:27:42;98451.25;;;12.00;72.04
33845;BME280;20145;43.118;25.694;2023-04-02T04:33:02;98461.50;;;12.03;71.89
33845;BME280;20145;43.118;25.694;2023-04-02T04:35:32;98469.63;;;12.18;71.10
33845;BME280;20145;43.118;25.694;2023-04-02T04:38:14;98467.00;;;12.19;70.18
33845;BME280;20145;43.118;25.694;2023-04-02T04:40:45;98467.66;;;12.24;70.20
33845;BME280;20145;43.118;25.694;2023-04-02T04:43:36;98464.94;;;12.29;69.44
33845;BME280;20145;43.118;25.694;2023-04-02T04:46:09;98459.88;;;12.26;70.36
33845;BME280;20145;43.118;25.694;2023-04-02T04:51:18;98480.56;;;12.26;69.42
33845;BME280;20145;43.118;25.694;2023-04-02T04:53:47;98480.19;;;12.37;69.08
33845;BME280;20145;43.118;25.694;2023-04-02T04:56:16;98480.34;;;12.57;71.21
33845;BME280;20145;43.118;25.694;2023-04-02T04:58:58;98478.16;;;12.70;68.38
33845;BME280;20145;43.118;25.694;2023-04-02T05:06:59;98483.13;;;12.76;67.64
33845;BME280;20145;43.118;25.694;2023-04-02T05:20:25;98496.28;;;12.70;67.54
33845;BME280;20145;43.118;25.694;2023-04-02T05:23:18;98501.38;;;12.71;68.49
33845;BME280;20145;43.118;25.694;2023-04-02T05:28:31;98508.31;;;12.71;67.34
33845;BME280;20145;43.118;25.694;2023-04-02T05:31:06;98508.06;;;12.79;68.30
33845;BME280;20145;43.118;25.694;2023-04-02T05:33:35;98502.59;;;12.86;67.61
33845;BME280;20145;43.118;25.694;2023-04-02T05:36:04;98516.31;;;12.88;67.74
33845;BME280;20145;43.118;25.694;2023-04-02T05:38:34;98520.34;;;12.97;67.20
33845;BME280;20145;43.118;25.694;2023-04-02T05:41:07;98520.66;;;12.88;66.81
33845;BME280;20145;43.118;25.694;2023-04-02T05:43:45;98528.53;;;12.85;66.75
33845;BME280;20145;43.118;25.694;2023-04-02T05:46:17;98523.28;;;13.11;65.95
33845;BME280;20145;43.118;25.694;2023-04-02T05:48:50;98517.47;;;13.05;64.71
33845;BME280;20145;43.118;25.694;2023-04-02T05:51:18;98525.03;;;13.11;65.97
33845;BME280;20145;43.118;25.694;2023-04-02T05:53:51;98527.19;;;13.22;65.20
33845;BME280;20145;43.118;25.694;2023-04-02T05:56:40;98524.03;;;13.38;65.75
33845;BME280;20145;43.118;25.694;2023-04-02T06:02:05;98536.22;;;13.58;64.85
33845;BME280;20145;43.118;25.694;2023-04-02T06:07:18;98536.03;;;13.63;65.35
33845;BME280;20145;43.118;25.694;2023-04-02T06:09:53;98537.53;;;13.69;64.49
33845;BME280;20145;43.118;25.694;2023-04-02T06:12:22;98539.38;;;13.67;64.45
33845;BME280;20145;43.118;25.694;2023-04-02T06:14:50;98526.41;;;13.67;64.51
33845;BME280;20145;43.118;25.694;2023-04-02T06:17:18;98529.88;;;13.88;63.63
33845;BME280;20145;43.118;25.694;2023-04-02T06:19:44;98531.28;;;13.74;63.45
33845;BME280;20145;43.118;25.694;2023-04-02T06:22:22;98543.50;;;13.71;64.05
33845;BME280;20145;43.118;25.694;2023-04-02T06:24:58;98531.28;;;13.74;63.38
33845;BME280;20145;43.118;25.694;2023-04-02T06:27:26;98519.94;;;13.55;64.32
33845;BME280;20145;43.118;25.694;2023-04-02T06:29:58;98531.28;;;13.52;64.13
33845;BME280;20145;43.118;25.694;2023-04-02T06:32:25;98536.91;;;13.40;64.86
33845;BME280;20145;43.118;25.694;2023-04-02T06:34:51;98535.22;;;13.39;63.29
33845;BME280;20145;43.118;25.694;2023-04-02T06:37:34;98552.09;;;13.49;64.83
33845;BME280;20145;43.118;25.694;2023-04-02T06:40:02;98545.91;;;13.53;64.71
33845;BME280;20145;43.118;25.694;2023-04-02T06:42:36;98552.84;;;13.53;64.62
33845;BME280;20145;43.118;25.694;2023-04-02T06:45:04;98544.28;;;13.51;63.75
33845;BME280;20145;43.118;25.694;2023-04-02T06:50:43;98557.84;;;13.57;61.96
33845;BME280;20145;43.118;25.694;2023-04-02T06:53:19;98565.97;;;13.48;62.21
33845;BME280;20145;43.118;25.694;2023-04-02T06:58:26;98569.16;;;14.00;61.80
33845;BME280;20145;43.118;25.694;2023-04-02T07:00:52;98580.66;;;14.15;61.62
33845;BME280;20145;43.118;25.694;2023-04-02T07:03:27;98581.03;;;14.06;62.10
33845;BME280;20145;43.118;25.694;2023-04-02T07:05:54;98578.63;;;14.01;61.79
33845;BME280;20145;43.118;25.694;2023-04-02T07:08:20;98574.81;;;14.10;62.36
33845;BME280;20145;43.118;25.694;2023-04-02T07:10:46;98583.00;;;14.21;62.03
33845;BME280;20145;43.118;25.694;2023-04-02T07:13:16;98582.53;;;14.34;61.63
33845;BME280;20145;43.118;25.694;2023-04-02T07:15:47;98573.50;;;14.42;62.43
33845;BME280;20145;43.118;25.694;2023-04-02T07:18:26;98583.94;;;14.63;62.08
33845;BME280;20145;43.118;25.694;2023-04-02T07:20:53;98593.88;;;14.73;60.81
33845;BME280;20145;43.118;25.694;2023-04-02T07:23:19;98590.53;;;14.49;59.75
33845;BME280;20145;43.118;25.694;2023-04-02T07:25:49;98578.81;;;14.61;61.43
33845;BME280;20145;43.118;25.694;2023-04-02T07:28:15;98594.94;;;14.47;61.66
33845;BME280;20145;43.118;25.694;2023-04-02T07:30:41;98593.78;;;14.55;61.32
33845;BME280;20145;43.118;25.694;2023-04-02T07:33:12;98615.22;;;14.60;61.31
33845;BME280;20145;43.118;25.694;2023-04-02T07:35:38;98614.56;;;14.55;59.52
33845;BME280;20145;43.118;25.694;2023-04-02T07:38:03;98613.38;;;14.63;59.96
33845;BME280;20145;43.118;25.694;2023-04-02T07:40:29;98604.00;;;14.59;61.47
33845;BME280;20145;43.118;25.694;2023-04-02T07:42:54;98615.16;;;14.82;59.48
33845;BME280;20145;43.118;25.694;2023-04-02T07:45:20;98604.56;;;14.66;60.46
33845;BME280;20145;43.118;25.694;2023-04-02T07:47:45;98612.53;;;14.83;60.61
33845;BME280;20145;43.118;25.694;2023-04-02T07:50:11;98610.31;;;14.94;60.58
33845;BME280;20145;43.118;25.694;2023-04-02T07:52:42;98609.84;;;14.85;60.68
33845;BME280;20145;43.118;25.694;2023-04-02T07:55:13;98618.38;;;14.88;60.19
33845;BME280;20145;43.118;25.694;2023-04-02T07:57:49;98611.34;;;15.11;59.79
33845;BME280;20145;43.118;25.694;2023-04-02T08:00:15;98621.38;;;15.39;61.56
33845;BME280;20145;43.118;25.694;2023-04-02T08:02:41;98608.56;;;15.34;60.04
33845;BME280;20145;43.118;25.694;2023-04-02T08:05:08;98612.53;;;15.62;58.36
33845;BME280;20145;43.118;25.694;2023-04-02T08:07:35;98616.69;;;15.66;57.90
33845;BME280;20145;43.118;25.694;2023-04-02T08:10:02;98611.88;;;15.57;57.32
33845;BME280;20145;43.118;25.694;2023-04-02T08:12:28;98611.06;;;15.56;58.08
33845;BME280;20145;43.118;25.694;2023-04-02T08:14:54;98623.03;;;15.79;57.95
33845;BME280;20145;43.118;25.694;2023-04-02T08:17:21;98621.41;;;15.96;57.81
33845;BME280;20145;43.118;25.694;2023-04-02T08:19:47;98621.19;;;16.00;58.78
33845;BME280;20145;43.118;25.694;2023-04-02T08:22:12;98617.53;;;16.41;58.18
33845;BME280;20145;43.118;25.694;2023-04-02T08:24:38;98625.69;;;16.52;56.50
33845;BME280;20145;43.118;25.694;2023-04-02T08:27:04;98617.97;;;16.32;58.01
33845;BME280;20145;43.118;25.694;2023-04-02T08:29:29;98615.69;;;16.43;57.48
33845;BME280;20145;43.118;25.694;2023-04-02T08:31:58;98598.75;;;16.88;56.72
33845;BME280;20145;43.118;25.694;2023-04-02T08:34:25;98603.28;;;17.17;55.79
33845;BME280;20145;43.118;25.694;2023-04-02T08:36:55;98601.22;;;17.07;55.36
33845;BME280;20145;43.118;25.694;2023-04-02T08:39:21;98594.28;;;16.90;55.57
33845;BME280;20145;43.118;25.694;2023-04-02T08:47:05;98609.31;;;16.31;57.32
33845;BME280;20145;43.118;25.694;2023-04-02T08:49:34;98604.91;;;16.50;56.50
33845;BME280;20145;43.118;25.694;2023-04-02T08:52:02;98602.59;;;16.62;56.78
33845;BME280;20145;43.118;25.694;2023-04-02T08:54:31;98599.31;;;16.58;56.05
33845;BME280;20145;43.118;25.694;2023-04-02T08:57:03;98600.31;;;16.56;56.73
33845;BME280;20145;43.118;25.694;2023-04-02T08:59:37;98607.88;;;16.43;57.93
33845;BME280;20145;43.118;25.694;2023-04-02T09:02:38;98599.28;;;16.23;57.89
33845;BME280;20145;43.118;25.694;2023-04-02T09:05:06;98614.00;;;16.24;57.22
33845;BME280;20145;43.118;25.694;2023-04-02T09:07:39;98606.81;;;16.30;58.41
33845;BME280;20145;43.118;25.694;2023-04-02T09:10:13;98596.25;;;16.50;57.28
33845;BME280;20145;43.118;25.694;2023-04-02T09:12:40;98602.97;;;16.54;58.12
33845;BME280;20145;43.118;25.694;2023-04-02T09:17:39;98610.94;;;16.34;57.81
33845;BME280;20145;43.118;25.694;2023-04-02T09:20:24;98612.91;;;16.28;57.29
33845;BME280;20145;43.118;25.694;2023-04-02T09:22:51;98617.66;;;16.38;56.92
33845;BME280;20145;43.118;25.694;2023-04-02T09:25:26;98616.19;;;16.68;56.26
33845;BME280;20145;43.118;25.694;2023-04-02T09:27:56;98603.34;;;16.83;55.61
33845;BME280;20145;43.118;25.694;2023-04-02T09:32:58;98605.00;;;16.66;55.10
33845;BME280;20145;43.118;25.694;2023-04-02T09:35:33;98621.63;;;16.46;55.20
33845;BME280;20145;43.118;25.694;2023-04-02T09:40:56;98608.66;;;16.45;55.94
33845;BME280;20145;43.118;25.694;2023-04-02T09:43:25;98608.38;;;16.68;56.00
33845;BME280;20145;43.118;25.694;2023-04-02T09:48:45;98613.03;;;16.62;55.57
33845;BME280;20145;43.118;25.694;2023-04-02T09:51:19;98602.06;;;16.72;54.55
33845;BME280;20145;43.118;25.694;2023-04-02T09:53:49;98611.28;;;16.97;54.07
33845;BME280;20145;43.118;25.694;2023-04-02T09:56:18;98635.75;;;16.77;55.07
33845;BME280;20145;43.118;25.694;2023-04-02T09:59:17;98625.84;;;16.66;53.75
33845;BME280;20145;43.118;25.694;2023-04-02T10:07:04;98623.84;;;17.24;52.49
33845;BME280;20145;43.118;25.694;2023-04-02T10:09:35;98631.84;;;16.86;51.94
33845;BME280;20145;43.118;25.694;2023-04-02T10:12:04;98639.66;;;16.86;51.94
33845;BME280;20145;43.118;25.694;2023-04-02T10:14:39;98629.34;;;17.17;51.25
33845;BME280;20145;43.118;25.694;2023-04-02T10:17:28;98631.69;;;17.39;50.71
33845;BME280;20145;43.118;25.694;2023-04-02T10:20:13;98627.97;;;17.28;51.31
33845;BME280;20145;43.118;25.694;2023-04-02T10:22:42;98625.06;;;17.16;50.43
33845;BME280;20145;43.118;25.694;2023-04-02T10:25:15;98632.38;;;17.10;51.30
33845;BME280;20145;43.118;25.694;2023-04-02T10:27:55;98630.00;;;17.38;50.50
33845;BME280;20145;43.118;25.694;2023-04-02T10:30:27;98624.63;;;17.42;51.35
33845;BME280;20145;43.118;25.694;2023-04-02T10:33:16;98624.78;;;17.72;50.99
33845;BME280;20145;43.118;25.694;2023-04-02T10:38:42;98629.44;;;17.65;51.43
33845;BME280;20145;43.118;25.694;2023-04-02T10:43:58;98638.28;;;17.80;48.83
33845;BME280;20145;43.118;25.694;2023-04-02T10:52:15;98632.03;;;17.98;49.17
33845;BME280;20145;43.118;25.694;2023-04-02T10:54:45;98635.84;;;18.09;49.27
33845;BME280;20145;43.118;25.694;2023-04-02T10:57:37;98630.84;;;18.04;49.54
33845;BME280;20145;43.118;25.694;2023-04-02T11:02:58;98620.28;;;18.07;47.77
33845;BME280;20145;43.118;25.694;2023-04-02T11:05:46;98626.50;;;17.89;47.84
33845;BME280;20145;43.118;25.694;2023-04-02T11:11:23;98633.88;;;18.12;47.78
33845;BME280;20145;43.118;25.694;2023-04-02T11:14:00;98635.06;;;18.06;47.16
33845;BME280;20145;43.118;25.694;2023-04-02T11:16:27;98629.00;;;18.06;46.75
33845;BME280;20145;43.118;25.694;2023-04-02T11:24:36;98617.38;;;18.12;46.58
33845;BME280;20145;43.118;25.694;2023-04-02T11:27:12;98622.31;;;18.48;46.43
33845;BME280;20145;43.118;25.694;2023-04-02T11:29:40;98613.50;;;18.35;45.57
33845;BME280;20145;43.118;25.694;2023-04-02T11:32:22;98621.41;;;18.17;45.61
33845;BME280;20145;43.118;25.694;2023-04-02T11:50:39;98614.47;;;18.48;43.33
33845;BME280;20145;43.118;25.694;2023-04-02T11:55:47;98611.41;;;18.56;44.05
33845;BME280;20145;43.118;25.694;2023-04-02T12:09:29;98613.22;;;18.39;44.94
33845;BME280;20145;43.118;25.694;2023-04-02T12:11:59;98608.88;;;18.24;45.25
33845;BME280;20145;43.118;25.694;2023-04-02T12:14:46;98600.44;;;18.35;44.74
33845;BME280;20145;43.118;25.694;2023-04-02T12:20:23;98600.78;;;18.59;43.00
33845;BME280;20145;43.118;25.694;2023-04-02T12:22:53;98599.38;;;18.53;43.13
33845;BME280;20145;43.118;25.694;2023-04-02T12:27:46;98591.31;;;18.72;43.98
33845;BME280;20145;43.118;25.694;2023-04-02T12:30:22;98607.72;;;18.60;43.16
33845;BME280;20145;43.118;25.694;2023-04-02T12:32:48;98604.19;;;18.45;42.84
33845;BME280;20145;43.118;25.694;2023-04-02T12:35:27;98605.78;;;18.47;43.53
33845;BME280;20145;43.118;25.694;2023-04-02T12:37:53;98614.53;;;18.00;44.10
33845;BME280;20145;43.118;25.694;2023-04-02T12:40:19;98591.81;;;18.02;44.23
33845;BME280;20145;43.118;25.694;2023-04-02T12:42:45;98596.91;;;18.04;43.35
33845;BME280;20145;43.118;25.694;2023-04-02T12:45:22;98596.31;;;18.15;43.71
33845;BME280;20145;43.118;25.694;2023-04-02T12:47:48;98595.41;;;18.16;44.44
33845;BME280;20145;43.118;25.694;2023-04-02T12:50:15;98588.06;;;18.22;43.63
33845;BME280;20145;43.118;25.694;2023-04-02T12:52:44;98586.69;;;18.31;43.77
33845;BME280;20145;43.118;25.694;2023-04-02T12:55:19;98576.03;;;18.50;43.55
33845;BME280;20145;43.118;25.694;2023-04-02T12:57:45;98591.09;;;18.61;43.19
33845;BME280;20145;43.118;25.694;2023-04-02T13:02:48;98577.84;;;18.80;41.74
33845;BME280;20145;43.118;25.694;2023-04-02T13:05:36;98583.06;;;18.64;42.36
33845;BME280;20145;43.118;25.694;2023-04-02T13:08:04;98586.88;;;18.58;42.00
33845;BME280;20145;43.118;25.694;2023-04-02T13:10:30;98583.59;;;18.40;41.61
33845;BME280;20145;43.118;25.694;2023-04-02T13:12:58;98581.63;;;18.44;42.18
33845;BME280;20145;43.118;25.694;2023-04-02T13:15:33;98589.13;;;18.34;41.36
33845;BME280;20145;43.118;25.694;2023-04-02T13:18:19;98587.09;;;18.39;42.82
33845;BME280;20145;43.118;25.694;2023-04-02T13:21:05;98588.91;;;18.53;42.14
33845;BME280;20145;43.118;25.694;2023-04-02T13:23:35;98593.34;;;18.67;41.95
33845;BME280;20145;43.118;25.694;2023-04-02T13:28:33;98589.16;;;19.09;41.26
33845;BME280;20145;43.118;25.694;2023-04-02T13:30:58;98577.78;;;19.10;40.53
33845;BME280;20145;43.118;25.694;2023-04-02T13:33:24;98567.69;;;19.18;40.81
33845;BME280;20145;43.118;25.694;2023-04-02T13:35:50;98579.25;;;19.00;39.57
33845;BME280;20145;43.118;25.694;2023-04-02T13:38:15;98584.19;;;18.90;38.60
33845;BME280;20145;43.118;25.694;2023-04-02T13:40:41;98571.78;;;18.79;38.63
33845;BME280;20145;43.118;25.694;2023-04-02T13:43:09;98565.84;;;18.76;37.45
33845;BME280;20145;43.118;25.694;2023-04-02T13:45:40;98561.84;;;18.84;36.95
33845;BME280;20145;43.118;25.694;2023-04-02T13:48:11;98571.88;;;18.92;37.62
33845;BME280;20145;43.118;25.694;2023-04-02T13:50:38;98564.84;;;18.92;38.01
33845;BME280;20145;43.118;25.694;2023-04-02T13:53:05;98569.75;;;18.68;38.40
33845;BME280;20145;43.118;25.694;2023-04-02T13:55:37;98567.88;;;18.70;38.43
33845;BME280;20145;43.118;25.694;2023-04-02T13:58:04;98578.00;;;18.77;38.45
33845;BME280;20145;43.118;25.694;2023-04-02T14:00:30;98582.50;;;18.59;38.81
33845;BME280;20145;43.118;25.694;2023-04-02T14:03:13;98578.28;;;18.56;38.86
33845;BME280;20145;43.118;25.694;2023-04-02T14:06:06;98585.09;;;18.59;40.01
33845;BME280;20145;43.118;25.694;2023-04-02T14:19:57;98575.81;;;18.69;38.97
33845;BME280;20145;43.118;25.694;2023-04-02T14:25:52;98574.94;;;18.84;38.76
33845;BME280;20145;43.118;25.694;2023-04-02T14:30:58;98560.44;;;18.79;40.68
33845;BME280;20145;43.118;25.694;2023-04-02T14:39:15;98569.56;;;18.71;39.51
33845;BME280;20145;43.118;25.694;2023-04-02T14:42:32;98564.03;;;18.62;39.79
33845;BME280;20145;43.118;25.694;2023-04-02T14:44:47;98555.59;;;18.57;39.96
33845;BME280;20145;43.118;25.694;2023-04-02T14:47:42;98555.97;;;18.50;40.62
33845;BME280;20145;43.118;25.694;2023-04-02T14:50:17;98569.50;;;18.43;39.54
33845;BME280;20145;43.118;25.694;2023-04-02T14:52:49;98575.91;;;18.37;39.85
33845;BME280;20145;43.118;25.694;2023-04-02T14:55:35;98566.50;;;18.35;40.37
33845;BME280;20145;43.118;25.694;2023-04-02T14:58:05;98571.63;;;18.36;40.53
33845;BME280;20145;43.118;25.694;2023-04-02T15:00:48;98575.63;;;18.42;42.00
33845;BME280;20145;43.118;25.694;2023-04-02T15:03:24;98583.84;;;18.36;41.18
33845;BME280;20145;43.118;25.694;2023-04-02T15:05:56;98576.06;;;18.34;40.84
33845;BME280;20145;43.118;25.694;2023-04-02T15:09:00;98575.53;;;18.29;40.65
33845;BME280;20145;43.118;25.694;2023-04-02T15:11:31;98576.97;;;18.19;41.01
33845;BME280;20145;43.118;25.694;2023-04-02T15:16:43;98577.31;;;18.13;41.30
33845;BME280;20145;43.118;25.694;2023-04-02T15:19:13;98589.91;;;18.20;41.44
33845;BME280;20145;43.118;25.694;2023-04-02T15:38:17;98592.47;;;17.90;41.17
33845;BME280;20145;43.118;25.694;2023-04-02T15:46:23;98595.41;;;17.68;42.02
33845;BME280;20145;43.118;25.694;2023-04-02T15:52:07;98603.22;;;17.68;42.16
33845;BME280;20145;43.118;25.694;2023-04-02T16:03:04;98624.06;;;17.52;43.55
33845;BME280;20145;43.118;25.694;2023-04-02T16:08:35;98624.47;;;17.45;43.70
33845;BME280;20145;43.118;25.694;2023-04-02T16:11:11;98622.59;;;17.31;43.88
33845;BME280;20145;43.118;25.694;2023-04-02T16:13:39;98623.69;;;17.27;43.84
33845;BME280;20145;43.118;25.694;2023-04-02T16:16:25;98628.19;;;17.23;45.00
33845;BME280;20145;43.118;25.694;2023-04-02T16:21:33;98624.94;;;17.02;43.93
33845;BME280;20145;43.118;25.694;2023-04-02T16:24:01;98632.66;;;17.04;43.74
33845;BME280;20145;43.118;25.694;2023-04-02T16:34:14;98638.53;;;16.72;44.25
33845;BME280;20145;43.118;25.694;2023-04-02T16:37:00;98645.06;;;16.64;44.38
33845;BME280;20145;43.118;25.694;2023-04-02T16:39:43;98654.06;;;16.57;45.14
33845;BME280;20145;43.118;25.694;2023-04-02T16:44:56;98649.00;;;16.36;44.99
33845;BME280;20145;43.118;25.694;2023-04-02T16:50:20;98655.78;;;16.21;46.71
33845;BME280;20145;43.118;25.694;2023-04-02T17:06:42;98667.13;;;15.82;47.89
33845;BME280;20145;43.118;25.694;2023-04-02T17:11:48;98661.34;;;15.76;50.24
33845;BME280;20145;43.118;25.694;2023-04-02T17:14:37;98674.50;;;15.73;52.09
33845;BME280;20145;43.118;25.694;2023-04-02T17:17:08;98677.53;;;15.62;51.51
33845;BME280;20145;43.118;25.694;2023-04-02T17:19:39;98667.69;;;15.50;54.87
33845;BME280;20145;43.118;25.694;2023-04-02T17:22:14;98680.88;;;15.45;55.85
33845;BME280;20145;43.118;25.694;2023-04-02T17:24:48;98689.22;;;15.33;56.14
33845;BME280;20145;43.118;25.694;2023-04-02T17:30:00;98694.66;;;15.06;58.01
33845;BME280;20145;43.118;25.694;2023-04-02T17:32:30;98695.06;;;14.97;57.94
33845;BME280;20145;43.118;25.694;2023-04-02T17:40:51;98703.38;;;14.63;60.40
33845;BME280;20145;43.118;25.694;2023-04-02T17:54:42;98715.91;;;13.82;64.64
33845;BME280;20145;43.118;25.694;2023-04-02T18:00:24;98730.03;;;13.50;67.09
33845;BME280;20145;43.118;25.694;2023-04-02T18:03:25;98733.97;;;13.35;67.56
33845;BME280;20145;43.118;25.694;2023-04-02T18:09:46;98741.31;;;12.96;68.46